Atwood, Wisconsin
Current Conditions -  °F | °C
As of 10:15 AM on Tuesday 21 Oct 2014 (Local Time) from KMDZ Reporting Station
Broken Clouds Broken Clouds  
Wind Chill: 37°   Ceiling: 1700
Heat Index: 43°   Visibility: 10mi
Dew Point: 35°   Wind: 10mph
Humidity: 74%   Direction: 60°ENE
Pressure: 30.22"   Gusts: NA
Location:  44.9782°N, 90.5368°W
Report Text: KMDZ 211515Z AUTO 06009KT 10SM BKN017 06/02 A3022 RMK AO2 T00600016
Loading
Personal Weather Stations






























Interactive Weather Map
Tropical Storm Tracking
New forecast layout! Learn more

10-Day Weather Forecast

Advertisements
Track Severe Weather on mobile